createdAt,value
2019-03-20T00:00:29.219Z,34.48
2019-03-20T00:02:57.624Z,47.60
2019-03-20T00:05:26.255Z,37.80
2019-03-20T00:07:54.639Z,63.00
2019-03-20T00:10:23.659Z,34.55
2019-03-20T00:12:52.048Z,50.28
2019-03-20T00:15:20.443Z,58.40
2019-03-20T00:17:48.843Z,53.80
2019-03-20T00:20:17.245Z,46.35
2019-03-20T00:22:45.632Z,80.62
2019-03-20T00:25:14.642Z,52.23
2019-03-20T00:27:43.037Z,42.80
2019-03-20T00:30:14.232Z,50.55
2019-03-20T00:32:42.776Z,44.83
2019-03-20T00:35:11.299Z,41.75
2019-03-20T00:37:39.930Z,47.10
2019-03-20T00:40:13.064Z,50.67
2019-03-20T00:42:41.502Z,55.08
2019-03-20T00:45:14.518Z,45.48
2019-03-20T00:47:42.919Z,46.53
2019-03-20T00:50:18.003Z,50.48
2019-03-20T00:52:46.464Z,47.58
2019-03-20T00:55:16.308Z,65.35
2019-03-20T00:57:45.281Z,38.60
2019-03-20T01:00:16.345Z,38.25
2019-03-20T01:02:45.002Z,53.52
2019-03-20T01:05:14.024Z,47.38
2019-03-20T01:07:42.580Z,46.55
2019-03-20T01:10:16.988Z,55.88
2019-03-20T01:12:45.377Z,56.48
2019-03-20T01:15:14.547Z,56.18
2019-03-20T01:17:43.122Z,44.65
2019-03-20T01:20:22.575Z,42.50
2019-03-20T01:22:51.120Z,45.00
2019-03-20T01:25:20.081Z,50.10
2019-03-20T01:27:48.601Z,46.73
2019-03-20T01:30:29.874Z,39.20
2019-03-20T01:32:58.792Z,52.78
2019-03-20T01:35:27.180Z,42.95
2019-03-20T01:37:55.583Z,49.00
2019-03-20T01:40:23.978Z,55.65
2019-03-20T01:42:52.360Z,54.23
2019-03-20T01:45:20.770Z,47.43
2019-03-20T01:47:49.221Z,43.50
2019-03-20T01:50:17.848Z,45.78
2019-03-20T01:52:46.496Z,47.53
2019-03-20T01:55:14.883Z,51.83
2019-03-20T01:57:43.266Z,53.95
2019-03-20T02:00:12.213Z,49.90
2019-03-20T02:02:40.843Z,51.25
2019-03-20T02:05:09.300Z,44.42
2019-03-20T02:07:37.937Z,51.23
2019-03-20T02:10:09.332Z,51.30
2019-03-20T02:12:37.720Z,62.13
2019-03-20T02:15:14.056Z,52.70
2019-03-20T02:17:42.439Z,55.35
2019-03-20T02:20:15.636Z,59.85
2019-03-20T02:22:44.104Z,48.20
2019-03-20T02:25:13.627Z,47.48
2019-03-20T02:27:42.086Z,50.50
2019-03-20T02:30:18.410Z,49.63
2019-03-20T02:32:46.848Z,50.00
2019-03-20T02:35:15.322Z,46.65
2019-03-20T02:37:43.937Z,51.60
2019-03-20T02:40:14.098Z,48.90
2019-03-20T02:42:42.804Z,53.02
2019-03-20T02:45:13.767Z,49.00
2019-03-20T02:47:42.261Z,50.60
2019-03-20T02:50:11.930Z,48.63
2019-03-20T02:52:40.314Z,50.85
2019-03-20T02:55:10.544Z,51.70
2019-03-20T02:57:39.172Z,59.95
2019-03-20T03:00:10.698Z,47.15
2019-03-20T03:02:39.082Z,46.05
2019-03-20T03:05:08.489Z,46.60
2019-03-20T03:07:37.117Z,47.10
2019-03-20T03:10:11.491Z,56.65
2019-03-20T03:12:40.197Z,46.92
2019-03-20T03:15:10.447Z,50.00
2019-03-20T03:17:38.903Z,50.85
2019-03-20T03:20:11.451Z,51.37
2019-03-20T03:22:40.089Z,57.50
2019-03-20T03:25:10.349Z,50.90
2019-03-20T03:27:38.747Z,46.70
2019-03-20T03:30:17.196Z,44.30
2019-03-20T03:32:46.390Z,43.80
2019-03-20T03:35:17.704Z,47.33
2019-03-20T03:37:45.713Z,47.67
2019-03-20T03:40:15.764Z,49.63
2019-03-20T03:42:44.227Z,47.58
2019-03-20T03:45:14.288Z,54.67
2019-03-20T03:47:42.690Z,44.40
2019-03-20T03:50:11.504Z,56.02
2019-03-20T03:52:40.165Z,49.23
2019-03-20T03:55:09.775Z,44.60
2019-03-20T03:57:38.501Z,43.90
2019-03-20T04:00:09.986Z,52.95
2019-03-20T04:02:38.348Z,56.00
2019-03-20T04:05:07.038Z,50.98
2019-03-20T04:07:35.494Z,48.00
2019-03-20T04:10:05.617Z,42.65
2019-03-20T04:12:34.005Z,46.70
2019-03-20T04:15:02.478Z,48.58
2019-03-20T04:17:30.867Z,39.18
2019-03-20T04:19:59.491Z,37.42
2019-03-20T04:22:28.137Z,39.63
2019-03-20T04:24:56.520Z,42.35
2019-03-20T04:27:24.995Z,53.48
2019-03-20T04:29:53.690Z,44.10
2019-03-20T04:32:22.306Z,43.73
2019-03-20T04:34:50.712Z,49.80
2019-03-20T04:37:19.335Z,56.30
2019-03-20T04:39:47.720Z,63.68
2019-03-20T04:42:16.126Z,52.35
2019-03-20T04:44:44.744Z,48.73
2019-03-20T04:47:13.381Z,48.48
2019-03-20T04:49:42.003Z,57.05
2019-03-20T04:52:10.396Z,52.13
2019-03-20T04:54:38.791Z,47.03
2019-03-20T04:57:07.236Z,56.53
2019-03-20T04:59:35.617Z,54.23
2019-03-20T05:02:04.026Z,51.25
2019-03-20T05:04:32.404Z,48.92
2019-03-20T05:07:00.849Z,54.83
2019-03-20T05:09:29.490Z,78.00
2019-03-20T05:11:58.119Z,60.35
2019-03-20T05:14:26.500Z,65.20
2019-03-20T05:16:54.901Z,79.47
2019-03-20T05:19:23.287Z,65.90
2019-03-20T05:21:51.679Z,63.08
2019-03-20T05:24:20.079Z,59.93
2019-03-20T05:26:48.466Z,60.48
2019-03-20T05:29:16.851Z,71.22
2019-03-20T05:31:45.251Z,63.80
2019-03-20T05:34:13.876Z,75.50
2019-03-20T05:36:42.513Z,62.13
2019-03-20T05:39:10.960Z,59.88
2019-03-20T05:41:39.585Z,53.85
2019-03-20T05:44:07.988Z,62.58
2019-03-20T05:46:36.375Z,47.13
2019-03-20T05:49:04.883Z,72.55
2019-03-20T05:51:33.530Z,63.60
2019-03-20T05:54:01.946Z,63.08
2019-03-20T05:56:30.582Z,55.88
2019-03-20T05:58:58.979Z,49.15
2019-03-20T06:01:27.367Z,66.00
2019-03-20T06:03:56.014Z,55.55
2019-03-20T06:06:24.641Z,78.62
2019-03-20T06:08:53.275Z,49.60
2019-03-20T06:11:21.727Z,51.63
2019-03-20T06:13:50.347Z,55.25
2019-03-20T06:16:18.732Z,50.35
2019-03-20T06:18:47.367Z,44.83
2019-03-20T06:21:16.000Z,67.80
2019-03-20T06:23:44.635Z,59.50
2019-03-20T06:26:13.022Z,66.37
2019-03-20T06:28:41.682Z,55.65
2019-03-20T06:31:10.347Z,51.92
2019-03-20T06:33:38.988Z,62.43
2019-03-20T06:36:07.616Z,56.15
2019-03-20T06:38:36.015Z,55.67
2019-03-20T06:41:04.407Z,54.20
2019-03-20T06:43:33.042Z,62.17
2019-03-20T06:46:01.668Z,54.45
2019-03-20T06:48:30.062Z,50.08
2019-03-20T06:50:58.467Z,56.95
2019-03-20T06:53:26.852Z,53.63
2019-03-20T06:55:55.478Z,50.73
2019-03-20T06:58:24.114Z,51.48
2019-03-20T07:00:58.544Z,50.52
2019-03-20T07:03:42.137Z,66.82
2019-03-20T07:06:16.713Z,65.40
2019-03-20T07:09:10.414Z,57.75
2019-03-20T07:11:40.347Z,44.50
2019-03-20T07:14:08.745Z,49.93
2019-03-20T07:16:37.387Z,52.13
2019-03-20T07:19:06.087Z,46.95
2019-03-20T07:21:34.473Z,40.10
2019-03-20T07:24:03.117Z,45.43
2019-03-20T07:26:31.743Z,42.10
2019-03-20T07:29:00.190Z,43.33
2019-03-20T07:31:28.585Z,55.50
2019-03-20T07:33:57.028Z,65.57
2019-03-20T07:36:25.724Z,55.83
2019-03-20T07:38:54.128Z,60.60
2019-03-20T07:41:22.517Z,48.15
2019-03-20T07:43:50.912Z,60.80
2019-03-20T07:46:19.297Z,55.35
2019-03-20T07:48:47.935Z,55.50
2019-03-20T07:51:16.382Z,49.65
2019-03-20T07:53:45.005Z,49.30
2019-03-20T07:56:13.699Z,54.85
2019-03-20T07:58:42.105Z,47.90
2019-03-20T08:01:10.553Z,54.70
2019-03-20T08:03:38.940Z,51.20
2019-03-20T08:06:07.582Z,60.78
2019-03-20T08:08:35.971Z,56.88
2019-03-20T08:11:04.436Z,51.45
2019-03-20T08:13:33.073Z,54.48
2019-03-20T08:16:03.893Z,52.55
2019-03-20T08:18:31.835Z,50.43
2019-03-20T08:21:00.464Z,51.28
2019-03-20T08:23:28.857Z,53.92
2019-03-20T08:25:57.264Z,46.45
2019-03-20T08:28:25.651Z,46.13
2019-03-20T08:30:54.289Z,46.70
2019-03-20T08:33:22.692Z,48.48
2019-03-20T08:35:51.084Z,50.67
2019-03-20T08:38:19.730Z,45.33
2019-03-20T08:40:48.354Z,52.58
2019-03-20T08:43:16.982Z,30.57
2019-03-20T08:45:45.454Z,41.53
2019-03-20T08:48:14.090Z,39.48
2019-03-20T08:50:42.719Z,37.98
2019-03-20T08:53:11.360Z,46.57
2019-03-20T08:55:39.759Z,38.42
2019-03-20T08:58:08.153Z,52.93
2019-03-20T09:00:36.574Z,30.43
2019-03-20T09:03:05.258Z,42.87
2019-03-20T09:05:33.655Z,40.65
2019-03-20T09:08:02.054Z,37.53
2019-03-20T09:10:30.707Z,49.08
2019-03-20T09:12:59.162Z,31.67
2019-03-20T09:15:27.559Z,34.60
2019-03-20T09:17:55.939Z,47.57
2019-03-20T09:20:25.093Z,32.03
2019-03-20T09:22:53.491Z,36.30
2019-03-20T09:25:26.644Z,36.17
2019-03-20T09:27:55.110Z,35.70
2019-03-20T09:30:24.630Z,32.80
2019-03-20T09:32:53.148Z,30.63
2019-03-20T09:35:22.035Z,31.30
2019-03-20T09:37:52.198Z,29.87
2019-03-20T09:40:28.436Z,25.23
2019-03-20T09:42:56.816Z,25.17
2019-03-20T09:45:25.565Z,23.10
2019-03-20T09:47:53.969Z,17.77
2019-03-20T09:50:24.355Z,26.20
2019-03-20T09:52:52.871Z,21.70
2019-03-20T09:55:21.580Z,26.60
2019-03-20T09:57:50.044Z,17.17
2019-03-20T10:00:25.547Z,20.83
2019-03-20T10:02:54.425Z,22.70
2019-03-20T10:05:22.932Z,20.63
2019-03-20T10:07:51.645Z,23.90
2019-03-20T10:10:30.578Z,29.87
2019-03-20T10:12:58.978Z,25.67
2019-03-20T10:15:31.598Z,14.47
2019-03-20T10:18:00.165Z,22.07
2019-03-20T10:20:28.615Z,16.63
2019-03-20T10:22:57.236Z,17.17
2019-03-20T10:25:25.925Z,19.63
2019-03-20T10:27:54.500Z,23.30
2019-03-20T10:30:26.916Z,22.03
2019-03-20T10:32:55.293Z,21.77
2019-03-20T10:35:23.682Z,18.47
2019-03-20T10:37:52.123Z,21.27
2019-03-20T10:40:22.622Z,26.67
2019-03-20T10:42:51.088Z,14.47
2019-03-20T10:45:20.308Z,17.00
2019-03-20T10:47:49.019Z,17.70
2019-03-20T10:50:21.427Z,19.27
2019-03-20T10:52:50.089Z,15.83
2019-03-20T10:55:18.691Z,20.47
2019-03-20T10:57:47.223Z,19.93
2019-03-20T11:00:23.300Z,25.03
2019-03-20T11:02:51.689Z,18.47
2019-03-20T11:05:20.143Z,14.73
2019-03-20T11:07:48.755Z,9.70
2019-03-20T11:10:22.211Z,14.83
2019-03-20T11:12:50.898Z,8.60
2019-03-20T11:15:20.507Z,8.57
2019-03-20T11:17:49.130Z,21.43
2019-03-20T11:20:18.645Z,8.40
2019-03-20T11:22:47.407Z,19.50
2019-03-20T11:25:23.211Z,13.23
2019-03-20T11:27:51.839Z,15.27
2019-03-20T11:30:27.186Z,17.80
2019-03-20T11:32:55.822Z,10.67
2019-03-20T11:35:24.519Z,25.50
2019-03-20T11:37:53.273Z,24.13
2019-03-20T11:40:35.322Z,27.97
2019-03-20T11:43:03.959Z,17.13
2019-03-20T11:45:32.403Z,22.43
2019-03-20T11:48:00.785Z,14.50
2019-03-20T11:50:40.401Z,21.10
2019-03-20T11:53:09.316Z,27.40
2019-03-20T11:55:38.048Z,18.50
2019-03-20T11:58:07.261Z,14.17
2019-03-20T12:00:35.640Z,17.13
2019-03-20T12:03:04.490Z,33.33
2019-03-20T12:05:32.882Z,20.57
2019-03-20T12:08:01.257Z,12.07
2019-03-20T12:10:30.777Z,13.00
2019-03-20T12:12:59.475Z,16.90
2019-03-20T12:15:28.163Z,16.97
2019-03-20T12:17:56.791Z,12.73
2019-03-20T12:20:25.875Z,19.80
2019-03-20T12:22:54.549Z,20.23
2019-03-20T12:25:36.188Z,12.57
2019-03-20T12:28:05.040Z,12.50
2019-03-20T12:30:35.598Z,15.60
2019-03-20T12:33:04.261Z,21.03
2019-03-20T12:35:36.710Z,14.13
2019-03-20T12:38:14.343Z,15.53
2019-03-20T12:40:36.439Z,16.70
2019-03-20T12:43:05.604Z,18.80
2019-03-20T12:45:38.891Z,14.27
2019-03-20T12:48:08.455Z,17.90
2019-03-20T12:50:36.889Z,33.23
2019-03-20T12:53:07.790Z,22.43
2019-03-20T12:55:36.422Z,20.10
2019-03-20T12:58:04.947Z,15.60
2019-03-20T13:00:33.646Z,14.73
2019-03-20T13:03:02.028Z,15.40
2019-03-20T13:05:30.423Z,16.77
2019-03-20T13:08:05.492Z,14.53
2019-03-20T13:10:28.988Z,17.40
2019-03-20T13:12:57.627Z,12.97
2019-03-20T13:15:27.306Z,14.87
2019-03-20T13:17:56.528Z,13.83
2019-03-20T13:20:25.158Z,9.10
2019-03-20T13:23:11.592Z,14.27
2019-03-20T13:25:39.983Z,19.57
2019-03-20T13:28:08.604Z,10.50
2019-03-20T13:30:45.586Z,14.77
2019-03-20T13:33:24.950Z,17.13
2019-03-20T13:35:44.546Z,11.13
2019-03-20T13:38:13.174Z,17.23
2019-03-20T13:40:41.628Z,13.67
2019-03-20T13:43:10.027Z,19.43
2019-03-20T13:45:38.412Z,16.47
2019-03-20T13:48:06.791Z,14.10
2019-03-20T13:50:35.245Z,19.30
2019-03-20T13:53:03.623Z,15.07
2019-03-20T13:55:32.258Z,14.50
2019-03-20T13:58:00.710Z,10.97
2019-03-20T14:00:29.165Z,10.37
2019-03-20T14:02:57.799Z,20.60
2019-03-20T14:05:26.414Z,15.47
2019-03-20T14:07:54.869Z,11.73
2019-03-20T14:10:28.207Z,10.93
2019-03-20T14:12:56.821Z,20.60
2019-03-20T14:15:25.283Z,12.73
2019-03-20T14:17:53.713Z,11.30
2019-03-20T14:20:29.016Z,11.90
2019-03-20T14:22:57.412Z,15.33
2019-03-20T14:25:25.934Z,9.57
2019-03-20T14:27:54.398Z,14.40
2019-03-20T14:30:28.162Z,16.13
2019-03-20T14:32:56.623Z,20.70
2019-03-20T14:35:25.074Z,13.13
2019-03-20T14:37:53.581Z,14.33
2019-03-20T14:40:37.127Z,11.17
2019-03-20T14:43:00.375Z,15.47
2019-03-20T14:45:29.068Z,9.40
2019-03-20T14:47:57.686Z,18.20
2019-03-20T14:50:26.939Z,14.93
2019-03-20T14:52:55.646Z,20.07
2019-03-20T14:55:24.301Z,16.87
2019-03-20T14:57:52.699Z,15.70
2019-03-20T15:00:26.150Z,10.90
2019-03-20T15:02:54.917Z,18.23
2019-03-20T15:05:23.425Z,26.80
2019-03-20T15:07:51.818Z,16.63
2019-03-20T15:10:24.930Z,18.67
2019-03-20T15:12:54.010Z,13.87
2019-03-20T15:15:27.940Z,18.60
2019-03-20T15:17:56.576Z,15.77
2019-03-20T15:20:25.178Z,12.63
2019-03-20T15:22:53.573Z,12.50
2019-03-20T15:25:22.188Z,12.63
2019-03-20T15:27:50.819Z,11.80
2019-03-20T15:30:24.084Z,14.33
2019-03-20T15:32:52.698Z,18.90
2019-03-20T15:35:21.326Z,11.77
2019-03-20T15:37:49.943Z,12.47
2019-03-20T15:40:22.705Z,14.60
2019-03-20T15:42:51.089Z,11.60
2019-03-20T15:45:19.806Z,16.10
2019-03-20T15:47:48.204Z,23.27
2019-03-20T15:50:27.250Z,19.00
2019-03-20T15:52:55.932Z,12.03
2019-03-20T15:55:34.767Z,18.33
2019-03-20T15:58:03.415Z,15.63
2019-03-20T16:00:31.877Z,17.57
2019-03-20T16:03:09.043Z,11.97
2019-03-20T16:05:37.679Z,12.83
2019-03-20T16:08:06.375Z,16.00
2019-03-20T16:10:34.901Z,18.57
2019-03-20T16:13:03.347Z,14.53
2019-03-20T16:15:31.919Z,18.00
2019-03-20T16:18:00.300Z,10.97
2019-03-20T16:20:28.935Z,12.13
2019-03-20T16:22:57.315Z,14.97
2019-03-20T16:25:25.870Z,13.40
2019-03-20T16:27:54.258Z,13.40
2019-03-20T16:30:26.925Z,10.70
2019-03-20T16:32:56.519Z,13.63
2019-03-20T16:35:24.995Z,24.47
2019-03-20T16:37:53.620Z,14.43
2019-03-20T16:40:32.374Z,19.43
2019-03-20T16:43:00.831Z,20.43
2019-03-20T16:45:32.940Z,17.27
2019-03-20T16:48:01.318Z,18.30
2019-03-20T16:50:29.820Z,12.63
2019-03-20T16:52:58.455Z,19.93
2019-03-20T16:55:27.230Z,17.67
2019-03-20T16:57:55.861Z,12.00
2019-03-20T17:00:29.555Z,28.23
2019-03-20T17:02:58.020Z,12.10
2019-03-20T17:05:27.570Z,20.70
2019-03-20T17:07:56.391Z,15.60
2019-03-20T17:10:26.835Z,17.97
2019-03-20T17:12:55.458Z,24.67
2019-03-20T17:15:26.321Z,18.10
2019-03-20T17:17:54.958Z,15.53
2019-03-20T17:20:23.711Z,21.00
2019-03-20T17:22:52.343Z,11.23
2019-03-20T17:25:20.730Z,20.40
2019-03-20T17:27:49.362Z,15.13
2019-03-20T17:30:22.763Z,22.00
2019-03-20T17:32:51.383Z,13.50
2019-03-20T17:35:19.843Z,15.13
2019-03-20T17:37:48.221Z,12.00
2019-03-20T17:40:26.979Z,11.33
2019-03-20T17:42:55.591Z,19.23
2019-03-20T17:45:28.469Z,10.53
2019-03-20T17:47:57.149Z,20.87
2019-03-20T17:50:30.471Z,12.70
2019-03-20T17:52:58.839Z,15.10
2019-03-20T17:55:27.554Z,14.13
2019-03-20T17:57:56.426Z,15.43
2019-03-20T18:00:36.689Z,18.37
2019-03-20T18:03:06.215Z,11.70
2019-03-20T18:05:34.995Z,19.60
2019-03-20T18:08:03.738Z,16.73
2019-03-20T18:10:33.245Z,21.57
2019-03-20T18:13:01.853Z,15.50
2019-03-20T18:15:30.513Z,19.50
2019-03-20T18:17:58.987Z,29.07
2019-03-20T18:20:27.360Z,25.90
2019-03-20T18:22:55.738Z,19.27
2019-03-20T18:25:24.130Z,24.00
2019-03-20T18:27:52.745Z,23.93
2019-03-20T18:30:23.226Z,18.50
2019-03-20T18:32:51.685Z,21.07
2019-03-20T18:35:20.297Z,16.10
2019-03-20T18:37:48.921Z,21.60
2019-03-20T18:40:18.853Z,23.40
2019-03-20T18:42:47.236Z,16.90
2019-03-20T18:45:21.336Z,29.07
2019-03-20T18:47:49.806Z,15.93
2019-03-20T18:50:19.361Z,19.97
2019-03-20T18:52:48.270Z,17.70
2019-03-20T18:55:17.937Z,19.13
2019-03-20T18:57:46.632Z,19.00
2019-03-20T19:00:29.729Z,13.70
2019-03-20T19:03:03.732Z,20.97
2019-03-20T19:05:54.624Z,13.90
2019-03-20T19:08:23.415Z,20.90
2019-03-20T19:10:51.945Z,21.83
2019-03-20T19:13:20.643Z,23.87
2019-03-20T19:15:49.984Z,20.83
2019-03-20T19:18:18.410Z,20.70
2019-03-20T19:20:46.792Z,17.83
2019-03-20T19:23:15.409Z,15.30
2019-03-20T19:25:43.779Z,16.37
2019-03-20T19:28:12.483Z,23.87
2019-03-20T19:30:41.100Z,30.80
2019-03-20T19:33:09.478Z,22.63
2019-03-20T19:35:38.113Z,18.83
2019-03-20T19:38:06.507Z,27.07
2019-03-20T19:40:34.882Z,21.63
2019-03-20T19:43:03.288Z,33.33
2019-03-20T19:45:31.897Z,20.07
2019-03-20T19:48:00.517Z,26.97
2019-03-20T19:50:29.160Z,25.53
2019-03-20T19:53:00.139Z,27.13
2019-03-20T19:55:30.325Z,17.77
2019-03-20T19:57:58.960Z,31.00
2019-03-20T20:00:28.337Z,23.13
2019-03-20T20:02:56.716Z,13.93
2019-03-20T20:05:25.359Z,20.63
2019-03-20T20:07:53.978Z,17.70
2019-03-20T20:10:22.610Z,28.77
2019-03-20T20:12:51.238Z,19.70
2019-03-20T20:15:28.733Z,34.63
2019-03-20T20:17:57.348Z,20.47
2019-03-20T20:20:36.786Z,23.43
2019-03-20T20:23:05.172Z,24.00
2019-03-20T20:25:33.835Z,28.37
2019-03-20T20:28:02.410Z,19.83
2019-03-20T20:30:31.298Z,30.90
2019-03-20T20:32:59.958Z,27.98
2019-03-20T20:35:28.684Z,25.88
2019-03-20T20:37:57.039Z,24.43
2019-03-20T20:40:30.442Z,38.70
2019-03-20T20:43:00.011Z,23.90
2019-03-20T20:45:28.575Z,35.78
2019-03-20T20:47:57.198Z,26.33
2019-03-20T20:50:26.235Z,24.80
2019-03-20T20:52:55.305Z,25.13
2019-03-20T20:55:24.744Z,24.85
2019-03-20T20:57:54.829Z,27.60
2019-03-20T21:00:25.182Z,37.90
2019-03-20T21:02:54.023Z,31.73
2019-03-20T21:05:22.660Z,30.20
2019-03-20T21:07:51.289Z,28.23
2019-03-20T21:10:26.144Z,29.72
2019-03-20T21:12:57.358Z,20.23
2019-03-20T21:15:34.173Z,31.23
2019-03-20T21:18:33.848Z,31.57
2019-03-20T21:21:02.350Z,30.52
2019-03-20T21:23:59.095Z,32.33
2019-03-20T21:26:30.512Z,27.25
2019-03-20T21:29:24.294Z,23.73
2019-03-20T21:32:05.754Z,30.05
2019-03-20T21:34:53.495Z,29.90
2019-03-20T21:37:41.447Z,27.63
2019-03-20T21:40:11.576Z,39.55
2019-03-20T21:43:07.272Z,26.42
2019-03-20T21:45:57.040Z,42.70
2019-03-20T21:48:25.503Z,33.95
2019-03-20T21:50:59.715Z,34.70
2019-03-20T21:53:56.784Z,41.92
2019-03-20T21:56:37.131Z,27.80
2019-03-20T21:59:34.175Z,40.63
2019-03-20T22:02:14.725Z,32.45
2019-03-20T22:04:43.133Z,30.57
2019-03-20T22:07:12.671Z,27.55
2019-03-20T22:09:56.137Z,45.90
2019-03-20T22:12:42.537Z,33.90
2019-03-20T22:15:22.900Z,22.70
2019-03-20T22:18:03.174Z,26.68
2019-03-20T22:20:37.706Z,30.70
2019-03-20T22:23:12.150Z,27.73
2019-03-20T22:26:12.241Z,42.83
2019-03-20T22:28:52.287Z,34.58
2019-03-20T22:31:21.337Z,26.70
2019-03-20T22:34:24.669Z,33.65
2019-03-20T22:36:54.243Z,39.85
2019-03-20T22:39:56.806Z,38.92
2019-03-20T22:42:50.692Z,30.95
2019-03-20T22:45:41.759Z,25.52
2019-03-20T22:48:28.123Z,29.00
2019-03-20T22:51:19.300Z,31.65
2019-03-20T22:54:08.707Z,39.50
2019-03-20T22:56:52.014Z,32.73
2019-03-20T22:59:20.420Z,28.20
2019-03-20T23:02:06.456Z,32.25
2019-03-20T23:04:38.004Z,25.55
2019-03-20T23:07:06.632Z,25.85
2019-03-20T23:09:35.018Z,50.90
2019-03-20T23:12:06.262Z,32.50
2019-03-20T23:14:34.660Z,23.73
2019-03-20T23:17:03.279Z,41.00
2019-03-20T23:19:31.931Z,27.32
2019-03-20T23:22:00.315Z,22.62
2019-03-20T23:24:28.706Z,21.45
2019-03-20T23:26:58.550Z,28.85
2019-03-20T23:29:26.935Z,29.50
2019-03-20T23:31:55.323Z,38.20
2019-03-20T23:34:23.726Z,35.85
2019-03-20T23:36:52.113Z,38.25
2019-03-20T23:39:20.735Z,35.95
2019-03-20T23:41:49.195Z,37.10
2019-03-20T23:44:17.831Z,47.38
2019-03-20T23:46:46.223Z,59.45
2019-03-20T23:49:17.610Z,46.53
2019-03-20T23:51:46.002Z,34.83
2019-03-20T23:54:16.225Z,35.83
2019-03-20T23:56:44.630Z,46.37
2019-03-20T23:59:13.020Z,61.68
